createdAt,value
2018-12-30T05:01:01.079Z,96.10
2018-12-30T05:03:23.543Z,96.10
2018-12-30T05:05:46.045Z,96.10
2018-12-30T05:08:21.301Z,96.10
2018-12-30T05:10:56.455Z,96.20
2018-12-30T05:13:31.203Z,96.10
2018-12-30T06:00:18.254Z,96.10
2018-12-30T06:03:00.266Z,96.00
2018-12-30T06:05:35.108Z,95.90
2018-12-30T06:08:10.283Z,95.80
2018-12-30T06:10:45.547Z,95.80
2018-12-30T06:13:20.454Z,95.70
2018-12-30T07:02:51.194Z,95.20
2018-12-30T07:05:28.183Z,95.20
2018-12-30T07:08:03.449Z,95.10
2018-12-30T07:10:38.956Z,95.10
2018-12-30T07:13:14.191Z,95.10
2018-12-30T08:00:20.035Z,94.30
2018-12-30T08:02:42.590Z,94.50
2018-12-30T08:05:05.171Z,94.40
2018-12-30T08:07:27.649Z,94.70
2018-12-30T08:09:50.107Z,94.10
2018-12-30T08:12:12.535Z,93.90
2018-12-30T08:14:35.086Z,93.70
2018-12-30T10:02:54.074Z,91.30
2018-12-30T10:05:29.411Z,91.00
2018-12-30T10:08:04.427Z,91.00
2018-12-30T10:10:39.279Z,91.00
2018-12-30T10:13:14.374Z,91.00
2018-12-30T11:01:00.223Z,87.50
2018-12-30T11:03:23.870Z,87.90
2018-12-30T11:05:46.375Z,88.30
2018-12-30T11:08:08.914Z,88.20
2018-12-30T11:10:31.658Z,87.90
2018-12-30T11:13:09.238Z,88.30
2018-12-30T11:18:24.125Z,88.10
2018-12-30T11:20:46.671Z,87.90
2018-12-30T11:23:09.897Z,88.00
2018-12-30T11:25:32.421Z,87.10
2018-12-30T12:00:48.430Z,84.90
2018-12-30T12:03:23.317Z,84.20
2018-12-30T12:05:58.562Z,84.50
2018-12-30T12:08:33.472Z,84.20
2018-12-30T12:10:55.922Z,85.50
2018-12-30T12:13:31.387Z,85.70
2018-12-30T13:00:18.732Z,90.20
2018-12-30T13:02:41.231Z,90.40
2018-12-30T13:05:03.848Z,90.40
2018-12-30T13:07:26.391Z,90.50
2018-12-30T13:09:48.858Z,90.60
2018-12-30T13:12:11.454Z,90.70
2018-12-30T13:14:34.312Z,90.50
2018-12-30T14:02:49.732Z,91.10
2018-12-30T14:05:25.343Z,91.10
2018-12-30T14:08:00.785Z,91.10
2018-12-30T14:10:35.741Z,91.20
2018-12-30T15:05:38.539Z,91.40
2018-12-30T15:08:15.863Z,91.70
2018-12-30T15:10:50.880Z,92.00
2018-12-30T15:13:26.036Z,91.60
2018-12-30T16:02:51.048Z,92.10
2018-12-30T16:05:25.982Z,92.10
2018-12-30T16:08:01.529Z,92.10
2018-12-30T16:10:36.447Z,92.30
2018-12-30T16:13:12.580Z,92.20
2018-12-30T17:00:16.455Z,92.20
2018-12-30T17:02:52.053Z,92.20
2018-12-30T17:05:27.162Z,92.10
2018-12-30T17:08:02.306Z,92.00
2018-12-30T17:10:37.238Z,92.10
2018-12-30T17:13:12.500Z,92.20
2018-12-30T18:00:17.022Z,92.10
2018-12-30T18:02:52.731Z,92.10
2018-12-30T18:05:27.807Z,92.00
2018-12-30T18:08:02.840Z,91.90
2018-12-30T18:10:37.800Z,92.10
2018-12-30T19:02:34.060Z,91.90
2018-12-30T19:05:09.284Z,92.00
2018-12-30T19:07:44.473Z,92.00
2018-12-30T19:10:19.423Z,92.00
2018-12-30T19:12:54.622Z,92.10
2018-12-30T20:01:51.511Z,92.70
2018-12-30T20:04:26.571Z,92.70
2018-12-30T20:07:07.939Z,92.70
2018-12-30T21:02:50.014Z,94.90
2018-12-30T21:05:25.013Z,94.80
2018-12-30T21:08:00.139Z,94.80
2018-12-30T21:10:35.122Z,94.80
2018-12-30T21:13:10.354Z,95.00
